createdAt,value
2023-04-03T00:00:25.497Z,50.60
2023-04-03T00:03:10.737Z,50.72
2023-04-03T00:05:56.227Z,50.70
2023-04-03T00:08:42.099Z,50.65
2023-04-03T00:11:27.326Z,50.68
2023-04-03T00:14:12.600Z,50.50
2023-04-03T00:16:57.871Z,50.66
2023-04-03T00:19:43.192Z,50.63
2023-04-03T00:22:29.701Z,50.63
2023-04-03T00:25:15.286Z,50.65
2023-04-03T00:28:01.662Z,50.73
2023-04-03T00:30:49.216Z,50.66
2023-04-03T00:33:34.750Z,50.53
2023-04-03T00:36:20.214Z,50.57
2023-04-03T00:39:06.864Z,50.58
2023-04-03T00:41:52.074Z,50.66
2023-04-03T00:44:37.826Z,50.55
2023-04-03T00:47:24.212Z,50.55
2023-04-03T00:50:10.085Z,50.53
2023-04-03T00:52:56.361Z,50.47
2023-04-03T00:55:43.937Z,50.50
2023-04-03T00:58:40.896Z,50.60
2023-04-03T01:01:29.006Z,50.45
2023-04-03T01:04:31.750Z,50.54
2023-04-03T01:07:28.915Z,50.58
2023-04-03T01:10:17.084Z,50.55
2023-04-03T01:13:02.772Z,50.60
2023-04-03T01:15:48.293Z,50.48
2023-04-03T01:18:36.865Z,50.47
2023-04-03T01:21:59.967Z,50.49
2023-04-03T01:24:47.711Z,50.51
2023-04-03T01:27:32.798Z,50.51
2023-04-03T01:30:20.325Z,50.53
2023-04-03T01:33:05.862Z,50.53
2023-04-03T01:35:51.710Z,50.53
2023-04-03T01:38:37.431Z,50.50
2023-04-03T01:41:22.993Z,50.52
2023-04-03T01:44:11.012Z,50.52
2023-04-03T01:46:56.384Z,50.55
2023-04-03T01:49:43.129Z,50.52
2023-04-03T01:52:28.919Z,50.48
2023-04-03T01:55:14.364Z,50.58
2023-04-03T01:57:59.571Z,50.47
2023-04-03T02:00:44.937Z,50.43
2023-04-03T02:03:30.681Z,50.43
2023-04-03T02:06:15.992Z,50.39
2023-04-03T02:09:01.622Z,50.41
2023-04-03T02:11:46.894Z,50.37
2023-04-03T02:14:32.749Z,50.36
2023-04-03T02:17:18.545Z,50.35
2023-04-03T02:20:04.875Z,50.49
2023-04-03T02:22:52.204Z,50.31
2023-04-03T02:25:38.814Z,50.30
2023-04-03T02:28:24.303Z,50.40
2023-04-03T02:31:11.637Z,50.36
2023-04-03T02:33:59.152Z,50.42
2023-04-03T02:36:45.217Z,50.33
2023-04-03T02:39:32.207Z,50.37
2023-04-03T02:42:18.476Z,50.34
2023-04-03T02:45:04.420Z,50.37
2023-04-03T02:47:50.584Z,50.19
2023-04-03T02:50:36.147Z,50.29
2023-04-03T02:53:21.532Z,50.09
2023-04-03T02:56:08.990Z,48.45
2023-04-03T02:58:54.229Z,48.10
2023-04-03T03:01:40.031Z,48.35
2023-04-03T03:04:25.444Z,48.34
2023-04-03T03:07:11.192Z,48.35
2023-04-03T03:09:56.525Z,48.53
2023-04-03T03:12:41.868Z,48.29
2023-04-03T03:15:27.545Z,48.42
2023-04-03T03:18:12.758Z,48.41
2023-04-03T03:21:00.767Z,48.23
2023-04-03T03:23:46.691Z,45.87
2023-04-03T03:26:31.864Z,46.55
2023-04-03T03:29:17.214Z,47.04
2023-04-03T03:32:03.629Z,47.57
2023-04-03T03:34:48.812Z,47.87
2023-04-03T03:37:34.063Z,48.09
2023-04-03T03:40:19.320Z,48.28
2023-04-03T03:43:04.681Z,48.42
2023-04-03T03:45:53.958Z,48.43
2023-04-03T03:48:41.304Z,48.46
2023-04-03T03:51:26.638Z,48.49
2023-04-03T03:54:12.426Z,48.65
2023-04-03T03:56:57.749Z,48.23
2023-04-03T03:59:45.314Z,47.73
2023-04-03T04:02:31.586Z,48.09
2023-04-03T04:05:17.289Z,48.19
2023-04-03T04:08:02.537Z,48.40
2023-04-03T04:10:47.726Z,48.39
2023-04-03T04:13:35.069Z,48.54
2023-04-03T04:16:20.961Z,48.43
2023-04-03T04:19:08.420Z,48.48
2023-04-03T04:21:55.800Z,48.62
2023-04-03T04:24:41.719Z,48.55
2023-04-03T04:27:27.401Z,48.61
2023-04-03T04:30:13.861Z,48.69
2023-04-03T04:33:00.065Z,48.85
2023-04-03T04:35:49.600Z,48.01
2023-04-03T04:38:37.036Z,48.53
2023-04-03T04:41:25.932Z,48.91
2023-04-03T04:44:11.503Z,49.05
2023-04-03T04:46:57.713Z,49.35
2023-04-03T04:49:43.412Z,49.57
2023-04-03T04:52:29.377Z,49.25
2023-04-03T04:55:14.698Z,49.10
2023-04-03T04:57:59.973Z,49.07
2023-04-03T05:00:45.167Z,48.83
2023-04-03T05:03:31.474Z,48.33
2023-04-03T05:06:17.376Z,48.35
2023-04-03T05:09:03.311Z,48.41
2023-04-03T05:11:50.525Z,48.34
2023-04-03T05:14:38.260Z,48.67
2023-04-03T05:17:26.337Z,49.04
2023-04-03T05:20:15.144Z,49.01
2023-04-03T05:23:02.477Z,49.12
2023-04-03T05:25:49.785Z,48.83
2023-04-03T05:28:37.499Z,48.77
2023-04-03T05:31:24.406Z,48.95
2023-04-03T05:34:11.336Z,49.32
2023-04-03T05:36:58.452Z,49.05
2023-04-03T05:39:46.004Z,45.63
2023-04-03T05:42:32.293Z,47.85
2023-04-03T05:45:18.329Z,48.48
2023-04-03T05:48:04.526Z,48.56
2023-04-03T05:50:50.637Z,48.31
2023-04-03T05:53:42.215Z,48.61
2023-04-03T05:56:27.981Z,48.84
2023-04-03T05:59:13.294Z,48.57
2023-04-03T06:01:58.934Z,48.59
2023-04-03T06:04:45.108Z,48.55
2023-04-03T06:07:31.757Z,48.43
2023-04-03T06:10:17.461Z,48.37
2023-04-03T06:13:04.075Z,48.66
2023-04-03T06:15:49.610Z,48.34
2023-04-03T06:18:35.643Z,48.08
2023-04-03T06:21:21.207Z,48.04
2023-04-03T06:24:07.106Z,48.13
2023-04-03T06:26:53.737Z,48.02
2023-04-03T06:29:39.339Z,47.83
2023-04-03T06:32:24.877Z,47.10
2023-04-03T06:35:10.376Z,47.29
2023-04-03T06:37:55.814Z,47.16
2023-04-03T06:40:41.208Z,46.99
2023-04-03T06:43:27.113Z,47.02
2023-04-03T06:46:15.759Z,46.99
2023-04-03T06:49:01.411Z,47.19
2023-04-03T06:51:46.672Z,47.18
2023-04-03T06:54:32.475Z,47.18
2023-04-03T06:57:17.861Z,47.23
2023-04-03T07:00:05.316Z,47.13
2023-04-03T07:02:50.807Z,47.28
2023-04-03T07:05:36.160Z,47.31
2023-04-03T07:08:22.247Z,47.44
2023-04-03T07:11:07.614Z,47.44
2023-04-03T07:13:53.644Z,47.53
2023-04-03T07:16:41.029Z,47.59
2023-04-03T07:19:29.103Z,47.60
2023-04-03T07:22:14.508Z,47.67
2023-04-03T07:25:00.198Z,47.68
2023-04-03T07:27:45.392Z,47.66
2023-04-03T07:30:30.729Z,47.67
2023-04-03T07:33:17.333Z,47.85
2023-04-03T07:36:02.966Z,47.74
2023-04-03T07:38:48.221Z,47.79
2023-04-03T07:41:33.721Z,47.78
2023-04-03T07:44:19.040Z,47.75
2023-04-03T07:47:04.360Z,47.88
2023-04-03T07:49:49.605Z,47.99
2023-04-03T07:52:34.903Z,47.90
2023-04-03T07:55:20.265Z,47.95
2023-04-03T07:58:05.809Z,47.95
2023-04-03T08:00:51.484Z,47.91
2023-04-03T08:03:38.413Z,47.89
2023-04-03T08:06:37.454Z,47.88
2023-04-03T08:09:29.172Z,48.02
2023-04-03T08:12:15.833Z,48.03
2023-04-03T08:15:02.240Z,48.02
2023-04-03T08:17:47.718Z,47.99
2023-04-03T08:20:32.868Z,47.95
2023-04-03T08:23:20.095Z,48.04
2023-04-03T08:26:17.215Z,48.03
2023-04-03T08:29:03.296Z,48.15
2023-04-03T08:31:50.702Z,48.08
2023-04-03T08:34:39.567Z,48.03
2023-04-03T08:37:24.853Z,48.11
2023-04-03T08:40:16.923Z,48.10
2023-04-03T08:43:05.578Z,48.10
2023-04-03T08:46:02.133Z,48.13
2023-04-03T08:48:50.107Z,48.03
2023-04-03T08:51:35.796Z,48.11
2023-04-03T08:54:43.575Z,48.10
2023-04-03T08:57:36.795Z,48.19
2023-04-03T09:00:25.394Z,48.16
2023-04-03T09:03:15.136Z,48.12
2023-04-03T09:06:14.665Z,48.12
2023-04-03T09:09:22.285Z,48.17
2023-04-03T09:12:13.996Z,48.12
2023-04-03T09:15:12.193Z,47.99
2023-04-03T09:18:06.677Z,48.11
2023-04-03T09:21:14.237Z,48.13
2023-04-03T09:24:02.338Z,47.98
2023-04-03T09:27:03.455Z,48.04
2023-04-03T09:29:54.016Z,48.16
2023-04-03T09:32:39.689Z,48.09
2023-04-03T09:35:32.812Z,48.08
2023-04-03T09:38:29.772Z,48.07
2023-04-03T09:41:24.820Z,47.97
2023-04-03T09:44:23.763Z,47.91
2023-04-03T09:47:26.478Z,48.09
2023-04-03T09:50:14.987Z,47.99
2023-04-03T09:53:06.096Z,48.13
2023-04-03T09:55:51.238Z,48.00
2023-04-03T09:58:50.542Z,48.09
2023-04-03T10:01:43.137Z,48.03
2023-04-03T10:04:40.173Z,48.00
2023-04-03T10:07:38.526Z,48.00
2023-04-03T10:10:26.505Z,47.93
2023-04-03T10:13:21.351Z,48.00
2023-04-03T10:16:18.583Z,48.03
2023-04-03T10:19:03.612Z,47.91
2023-04-03T10:21:59.874Z,47.90
2023-04-03T10:25:15.764Z,47.96
2023-04-03T10:28:20.540Z,48.01
2023-04-03T10:31:26.380Z,47.96
2023-04-03T10:34:42.368Z,47.90
2023-04-03T10:37:38.447Z,47.95
2023-04-03T10:40:48.473Z,47.78
2023-04-03T10:44:00.273Z,47.84
2023-04-03T10:46:50.054Z,47.89
2023-04-03T10:50:01.542Z,47.82
2023-04-03T10:53:12.031Z,47.80
2023-04-03T10:56:29.689Z,47.88
2023-04-03T10:59:47.116Z,47.84
2023-04-03T11:02:58.637Z,47.84
2023-04-03T11:05:46.047Z,47.80
2023-04-03T11:08:52.389Z,47.92
2023-04-03T11:11:41.123Z,47.76
2023-04-03T11:14:36.058Z,47.82
2023-04-03T11:17:26.046Z,47.85
2023-04-03T11:20:28.373Z,47.81
2023-04-03T11:23:30.391Z,47.84
2023-04-03T11:26:27.371Z,47.79
2023-04-03T11:29:34.477Z,47.86
2023-04-03T11:32:41.662Z,47.88
2023-04-03T11:35:28.130Z,47.93
2023-04-03T11:38:27.864Z,47.95
2023-04-03T11:41:14.909Z,47.89
2023-04-03T11:44:03.409Z,47.99
2023-04-03T11:46:57.279Z,47.88
2023-04-03T11:50:02.092Z,47.80
2023-04-03T11:52:50.554Z,47.91
2023-04-03T11:55:36.920Z,48.00
2023-04-03T11:58:32.869Z,47.83
2023-04-03T12:01:43.634Z,47.99
2023-04-03T12:04:30.055Z,47.92
2023-04-03T12:07:20.030Z,47.94
2023-04-03T12:10:30.412Z,47.91
2023-04-03T12:13:17.677Z,48.10
2023-04-03T12:16:05.939Z,47.50
2023-04-03T12:18:54.252Z,47.52
2023-04-03T12:21:53.046Z,47.47
2023-04-03T12:24:50.227Z,47.36
2023-04-03T12:27:41.889Z,47.45
2023-04-03T12:30:30.417Z,47.42
2023-04-03T12:33:30.812Z,47.47
2023-04-03T12:36:27.847Z,47.41
2023-04-03T12:39:43.855Z,47.40
2023-04-03T12:42:48.271Z,47.48
2023-04-03T12:45:52.912Z,47.42
2023-04-03T12:48:55.963Z,47.54
2023-04-03T12:51:44.590Z,47.44
2023-04-03T12:54:35.805Z,47.44
2023-04-03T12:57:25.284Z,47.48
2023-04-03T13:00:31.418Z,47.56
2023-04-03T13:03:28.063Z,47.43
2023-04-03T13:06:26.202Z,47.68
2023-04-03T13:09:30.394Z,47.46
2023-04-03T13:12:17.963Z,46.55
2023-04-03T13:15:15.560Z,46.98
2023-04-03T13:18:01.620Z,47.12
2023-04-03T13:20:49.588Z,47.11
2023-04-03T13:23:39.936Z,47.13
2023-04-03T13:26:32.166Z,46.27
2023-04-03T13:29:32.518Z,46.79
2023-04-03T13:32:22.761Z,46.91
2023-04-03T13:35:26.488Z,47.14
2023-04-03T13:38:17.957Z,45.91
2023-04-03T13:41:25.064Z,47.25
2023-04-03T13:44:40.617Z,48.04
2023-04-03T13:47:26.281Z,47.77
2023-04-03T13:50:30.352Z,47.75
2023-04-03T13:53:15.986Z,47.79
2023-04-03T13:56:04.732Z,47.75
2023-04-03T13:59:22.118Z,47.70
2023-04-03T14:02:17.461Z,47.83
2023-04-03T14:05:04.462Z,47.70
2023-04-03T14:07:52.894Z,47.53
2023-04-03T14:10:39.663Z,47.59
2023-04-03T14:13:25.595Z,47.61
2023-04-03T14:16:18.115Z,47.58
2023-04-03T14:19:04.205Z,47.69
2023-04-03T14:21:52.993Z,46.54
2023-04-03T14:24:41.312Z,47.10
2023-04-03T14:27:30.967Z,47.31
2023-04-03T14:30:31.170Z,47.75
2023-04-03T14:33:22.640Z,47.56
2023-04-03T14:36:13.403Z,47.21
2023-04-03T14:39:00.641Z,48.14
2023-04-03T14:41:46.774Z,47.87
2023-04-03T14:44:32.576Z,47.53
2023-04-03T14:47:30.634Z,47.10
2023-04-03T14:50:22.123Z,46.97
2023-04-03T14:53:07.768Z,46.79
2023-04-03T14:55:53.543Z,44.37
2023-04-03T14:58:39.239Z,43.25
2023-04-03T15:01:31.211Z,43.32
2023-04-03T15:04:19.675Z,44.44
2023-04-03T15:07:05.631Z,44.78
2023-04-03T15:10:06.441Z,44.42
2023-04-03T15:12:55.261Z,44.33
2023-04-03T15:15:41.306Z,44.31
2023-04-03T15:18:30.986Z,44.06
2023-04-03T15:21:16.649Z,44.33
2023-04-03T15:24:31.098Z,44.43
2023-04-03T15:27:17.969Z,44.58
2023-04-03T15:30:08.293Z,44.53
2023-04-03T15:32:54.310Z,44.30
2023-04-03T15:35:40.208Z,44.84
2023-04-03T15:38:26.062Z,45.23
2023-04-03T15:41:11.693Z,45.12
2023-04-03T15:43:57.597Z,45.30
2023-04-03T15:46:43.055Z,45.52
2023-04-03T15:49:30.881Z,45.37
2023-04-03T15:52:17.699Z,45.74
2023-04-03T15:55:04.342Z,45.73
2023-04-03T15:57:49.776Z,45.28
2023-04-03T16:00:36.653Z,45.53
2023-04-03T16:03:23.688Z,45.54
2023-04-03T16:06:08.833Z,45.62
2023-04-03T16:08:58.048Z,45.65
2023-04-03T16:11:44.445Z,45.71
2023-04-03T16:14:31.345Z,45.83
2023-04-03T16:17:16.670Z,45.76
2023-04-03T16:20:03.498Z,45.76
2023-04-03T16:22:49.125Z,45.90
2023-04-03T16:25:34.980Z,46.49
2023-04-03T16:28:20.771Z,46.51
2023-04-03T16:31:07.432Z,46.81
2023-04-03T16:33:53.537Z,46.66
2023-04-03T16:36:40.663Z,46.73
2023-04-03T16:39:25.932Z,46.72
2023-04-03T16:42:11.562Z,46.84
2023-04-03T16:44:56.936Z,46.83
2023-04-03T16:47:42.388Z,46.79
2023-04-03T16:50:27.685Z,46.67
2023-04-03T16:53:13.049Z,46.51
2023-04-03T16:55:59.995Z,46.78
2023-04-03T16:58:45.773Z,46.91
2023-04-03T17:01:31.409Z,47.07
2023-04-03T17:04:17.143Z,47.02
2023-04-03T17:07:06.975Z,47.15
2023-04-03T17:09:54.470Z,47.03
2023-04-03T17:12:40.097Z,46.86
2023-04-03T17:15:26.555Z,46.95
2023-04-03T17:18:13.099Z,46.96
2023-04-03T17:20:59.298Z,46.73
2023-04-03T17:23:50.226Z,46.91
2023-04-03T17:26:37.729Z,46.85
2023-04-03T17:29:23.257Z,47.04
2023-04-03T17:32:09.376Z,47.26
2023-04-03T17:34:55.426Z,47.07
2023-04-03T17:37:40.708Z,47.02
2023-04-03T17:40:26.122Z,47.41
2023-04-03T17:43:12.437Z,47.07
2023-04-03T17:46:11.302Z,47.18
2023-04-03T17:48:59.374Z,47.17
2023-04-03T17:52:05.618Z,46.91
2023-04-03T17:54:51.196Z,46.87
2023-04-03T17:57:36.704Z,46.83
2023-04-03T18:00:22.015Z,46.68
2023-04-03T18:03:07.559Z,46.85
2023-04-03T18:05:54.980Z,46.96
2023-04-03T18:08:53.254Z,46.78
2023-04-03T18:11:38.847Z,46.68
2023-04-03T18:14:27.024Z,46.72
2023-04-03T18:17:13.826Z,46.64
2023-04-03T18:19:59.350Z,47.40
2023-04-03T18:22:44.781Z,47.67
2023-04-03T18:28:22.657Z,47.70
2023-04-03T18:31:10.924Z,47.92
2023-04-03T18:33:59.086Z,47.86
2023-04-03T18:36:44.987Z,47.78
2023-04-03T18:39:30.558Z,46.59
2023-04-03T18:42:19.670Z,46.96
2023-04-03T18:45:06.302Z,46.76
2023-04-03T18:47:52.249Z,46.90
2023-04-03T18:50:38.025Z,46.70
2023-04-03T18:53:23.860Z,46.57
2023-04-03T18:56:09.118Z,46.73
2023-04-03T18:58:54.524Z,46.93
2023-04-03T19:01:40.441Z,46.96
2023-04-03T19:04:27.382Z,46.84
2023-04-03T19:07:12.983Z,46.91
2023-04-03T19:09:59.186Z,46.85
2023-04-03T19:12:45.478Z,46.78
2023-04-03T19:15:31.852Z,46.99
2023-04-03T19:18:17.338Z,47.06
2023-04-03T19:21:02.591Z,47.08
2023-04-03T19:23:48.880Z,47.01
2023-04-03T19:26:34.301Z,47.06
2023-04-03T19:29:19.716Z,46.98
2023-04-03T19:32:05.376Z,46.98
2023-04-03T19:34:51.154Z,47.13
2023-04-03T19:37:36.474Z,47.19
2023-04-03T19:40:21.825Z,47.07
2023-04-03T19:43:07.808Z,47.17
2023-04-03T19:45:53.310Z,47.32
2023-04-03T19:48:39.008Z,47.24
2023-04-03T19:51:24.351Z,47.25
2023-04-03T19:54:09.631Z,47.23
2023-04-03T19:56:55.228Z,47.24
2023-04-03T19:59:40.676Z,47.31
2023-04-03T20:02:26.169Z,47.28
2023-04-03T20:05:11.778Z,47.26
2023-04-03T20:07:57.438Z,47.30
2023-04-03T20:10:43.010Z,47.27
2023-04-03T20:13:28.383Z,47.28
2023-04-03T20:16:14.178Z,47.08
2023-04-03T20:19:00.274Z,47.38
2023-04-03T20:21:45.348Z,47.36
2023-04-03T20:24:31.572Z,47.38
2023-04-03T20:27:17.873Z,47.69
2023-04-03T20:30:09.054Z,47.46
2023-04-03T20:32:54.425Z,47.49
2023-04-03T20:35:39.725Z,47.40
2023-04-03T20:38:25.380Z,47.39
2023-04-03T20:41:11.071Z,47.41
2023-04-03T20:43:56.173Z,47.57
2023-04-03T20:46:52.122Z,47.37
2023-04-03T20:49:37.836Z,47.31
2023-04-03T20:52:23.193Z,47.32
2023-04-03T20:55:09.053Z,47.31
2023-04-03T20:57:58.374Z,47.37
2023-04-03T21:00:43.884Z,46.92
2023-04-03T21:03:30.635Z,47.29
2023-04-03T21:06:55.444Z,47.05
2023-04-03T21:10:18.590Z,47.02
2023-04-03T21:13:41.410Z,46.98
2023-04-03T21:16:27.251Z,47.09
2023-04-03T21:19:13.746Z,46.88
2023-04-03T21:22:00.598Z,46.91
2023-04-03T21:24:46.121Z,46.80
2023-04-03T21:27:32.071Z,46.86
2023-04-03T21:30:17.745Z,46.96
2023-04-03T21:33:02.960Z,46.88
2023-04-03T21:35:48.645Z,46.78
2023-04-03T21:38:36.071Z,46.75
2023-04-03T21:41:22.060Z,46.35
2023-04-03T21:44:07.575Z,46.77
2023-04-03T21:46:56.183Z,46.63
2023-04-03T21:49:41.660Z,46.87
2023-04-03T21:52:27.442Z,46.59
2023-04-03T21:55:15.391Z,46.49
2023-04-03T21:58:01.087Z,46.35
2023-04-03T22:00:46.451Z,46.40
2023-04-03T22:03:34.797Z,46.29
2023-04-03T22:06:20.225Z,46.49
2023-04-03T22:09:05.587Z,46.29
2023-04-03T22:11:51.534Z,46.32
2023-04-03T22:14:37.234Z,46.15
2023-04-03T22:17:22.800Z,46.33
2023-04-03T22:20:09.057Z,46.27
2023-04-03T22:22:54.433Z,46.19
2023-04-03T22:25:39.976Z,46.29
2023-04-03T22:28:27.126Z,46.00
2023-04-03T22:31:13.421Z,46.15
2023-04-03T22:33:58.877Z,46.00
2023-04-03T22:36:44.168Z,46.19
2023-04-03T22:39:29.511Z,46.13
2023-04-03T22:42:14.726Z,46.04
2023-04-03T22:44:59.844Z,46.03
2023-04-03T22:47:45.175Z,45.97
2023-04-03T22:50:30.451Z,45.93
2023-04-03T22:53:16.019Z,45.82
2023-04-03T22:56:03.249Z,45.86
2023-04-03T22:58:48.450Z,45.89
2023-04-03T23:01:33.998Z,45.90
2023-04-03T23:04:20.106Z,45.87
2023-04-03T23:07:05.406Z,45.84
2023-04-03T23:09:50.746Z,45.55
2023-04-03T23:12:42.248Z,45.61
2023-04-03T23:15:27.757Z,45.45
2023-04-03T23:18:13.022Z,45.93
2023-04-03T23:21:03.687Z,45.48
2023-04-03T23:23:49.434Z,45.43
2023-04-03T23:26:34.794Z,45.65
2023-04-03T23:29:20.027Z,45.43
2023-04-03T23:32:05.978Z,45.46
2023-04-03T23:34:51.469Z,45.25
2023-04-03T23:37:36.966Z,45.26
2023-04-03T23:40:22.646Z,45.24
2023-04-03T23:43:08.005Z,45.12
2023-04-03T23:45:54.325Z,44.92
2023-04-03T23:48:39.554Z,45.17
2023-04-03T23:51:24.768Z,45.22
2023-04-03T23:54:10.354Z,44.91
2023-04-03T23:56:56.570Z,45.15
2023-04-03T23:59:42.125Z,45.16
